Georgtown Station, New York
Current Conditions -  °F | °C
As of 1:53 PM on Tuesday 21 Oct 2014 (Local Time) from KRME Reporting Station
Overcast Overcast  
Wind Chill: 53°   Ceiling: 3800
Heat Index: 53°   Visibility: 10mi
Dew Point: 46°   Wind: 7mph
Humidity: 77%   Direction: 100°E
Pressure: 29.89"   Gusts: NA
Location:  42.8314°N, 75.6471°W
Report Text: KRME 211753Z 10006KT 10SM OVC038 12/08 A2989 RMK AO2 SLP121 60000 T01170078 10117 20078 58002
Loading
Personal Weather Stations






























Interactive Weather Map
Tropical Storm Tracking
New forecast layout! Learn more

10-Day Weather Forecast

Advertisements
Track Severe Weather on mobile